Time;durP1;ratioP1;P1;durP2;ratioP2;P2;SDS_P1;SDS_P2;PMS_P1;PMS_P2;Temp;Humidity;BMP_temperature;BMP_pressure;BME280_temperature;BME280_humidity;BME280_pressure;Samples;Min_cycle;Max_cycle;Signal;HPM_P1;HPM_P2
2023/08/22 00:00:47;;;;;;;2.37;1.10;;;;;;;21.53;78.41;101026.94;5052156;28;20226;-74
2023/08/22 00:03:14;;;;;;;2.60;1.40;;;;;;;21.54;78.36;101031.31;5051936;28;20727;-74
2023/08/22 00:05:41;;;;;;;2.70;1.30;;;;;;;21.49;78.12;101036.03;5052496;28;20201;-73
2023/08/22 00:08:09;;;;;;;2.17;1.67;;;;;;;21.40;77.95;101042.66;5052115;28;20679;-76
2023/08/22 00:10:36;;;;;;;3.07;1.17;;;;;;;21.37;78.31;101045.50;5046391;28;20651;-76
2023/08/22 00:13:03;;;;;;;1.70;1.60;;;;;;;21.42;78.87;101024.84;5045503;28;20285;-73
2023/08/22 00:15:30;;;;;;;2.07;1.20;;;;;;;21.41;78.96;101018.69;5047229;28;20201;-74
2023/08/22 00:17:57;;;;;;;0.97;0.93;;;;;;;21.44;79.22;101006.19;5043537;28;20202;-73
2023/08/22 00:20:23;;;;;;;2.17;1.30;;;;;;;21.37;78.75;101008.31;5049038;28;20225;-74
2023/08/22 00:22:50;;;;;;;2.23;1.10;;;;;;;21.35;78.94;101008.38;5049792;28;20228;-74
2023/08/22 00:25:18;;;;;;;3.20;1.73;;;;;;;21.37;79.38;100995.03;5050457;28;20246;-74
2023/08/22 00:27:45;;;;;;;3.60;1.50;;;;;;;21.34;79.33;100995.19;5050103;28;20206;-74
2023/08/22 00:30:11;;;;;;;1.70;1.13;;;;;;;21.31;79.26;100990.91;5049882;28;20209;-74
2023/08/22 00:32:38;;;;;;;1.50;1.40;;;;;;;21.23;79.30;100986.03;5049777;28;20226;-74
2023/08/22 00:35:05;;;;;;;1.87;1.50;;;;;;;21.22;79.79;100978.97;5050195;28;20580;-73
2023/08/22 00:37:31;;;;;;;2.20;1.50;;;;;;;21.22;79.94;100968.38;5051871;28;20201;-74
2023/08/22 00:39:58;;;;;;;4.47;1.00;;;;;;;21.17;79.54;100973.09;5051570;28;20733;-73
2023/08/22 00:42:26;;;;;;;1.60;1.37;;;;;;;21.15;77.85;100997.97;5043830;28;20224;-74
2023/08/22 00:44:53;;;;;;;6.27;1.27;;;;;;;21.07;78.31;100997.53;5051642;28;20211;-73
2023/08/22 00:47:20;;;;;;;1.97;1.60;;;;;;;21.12;77.22;101022.91;5051024;28;20205;-74
2023/08/22 00:49:50;;;;;;;2.30;1.10;;;;;;;21.12;76.35;101044.16;5051895;28;20197;-74
2023/08/22 00:52:16;;;;;;;2.90;1.50;;;;;;;21.11;76.30;101065.47;5051593;28;20765;-73
2023/08/22 00:54:43;;;;;;;1.40;1.30;;;;;;;21.11;76.91;101068.13;5051754;28;20205;-73
2023/08/22 00:57:10;;;;;;;2.40;1.50;;;;;;;21.09;77.43;101051.41;5051670;28;20694;-74
2023/08/22 00:59:38;;;;;;;2.47;1.80;;;;;;;21.11;77.24;101041.56;5051593;28;20232;-73
2023/08/22 01:02:07;;;;;;;5.70;1.30;;;;;;;21.12;76.68;101052.13;5051467;28;20225;-73
2023/08/22 01:04:33;;;;;;;2.13;1.27;;;;;;;21.12;76.73;101065.38;5051756;28;20260;-73
2023/08/22 01:07:05;;;;;;;3.10;1.37;;;;;;;21.10;76.98;101074.38;5051480;28;20209;-74
2023/08/22 01:09:36;;;;;;;6.20;1.13;;;;;;;21.13;78.38;101048.53;5051331;28;20570;-74
2023/08/22 01:12:09;;;;;;;5.53;1.30;;;;;;;21.15;78.35;101035.16;5051066;28;20225;-73
2023/08/22 01:14:40;;;;;;;2.00;1.10;;;;;;;21.20;78.95;101025.16;5051700;28;20221;-74
2023/08/22 01:17:08;;;;;;;1.90;1.20;;;;;;;21.25;79.35;101023.13;5050631;28;20213;-74
2023/08/22 01:19:35;;;;;;;2.53;1.20;;;;;;;21.26;78.72;101016.00;5051322;28;20598;-75
2023/08/22 01:22:03;;;;;;;2.00;1.40;;;;;;;21.21;78.13;101027.72;5051408;28;20233;-75
2023/08/22 01:24:30;;;;;;;1.67;1.53;;;;;;;21.17;78.38;101028.00;5051244;28;20213;-75
2023/08/22 01:26:56;;;;;;;2.03;1.87;;;;;;;21.08;78.85;101021.34;5050860;28;20545;-75
2023/08/22 01:29:26;;;;;;;1.30;1.20;;;;;;;21.00;80.07;100989.06;5051087;28;20206;-75
2023/08/22 01:32:01;;;;;;;2.87;1.40;;;;;;;20.98;80.55;100978.53;5055290;28;20221;-75
2023/08/22 01:34:30;;;;;;;1.47;1.37;;;;;;;21.00;80.93;100949.25;5048062;28;20203;-75
2023/08/22 01:36:59;;;;;;;2.30;1.27;;;;;;;21.03;80.08;100965.03;5055381;28;20205;-75
2023/08/22 01:39:28;;;;;;;1.47;1.10;;;;;;;20.98;81.05;100961.75;5054731;28;20220;-75
2023/08/22 01:41:56;;;;;;;3.60;1.27;;;;;;;21.00;81.21;100957.22;5054871;28;20602;-75
2023/08/22 01:44:23;;;;;;;3.50;2.27;;;;;;;20.99;79.88;100961.69;5055380;28;20597;-75
2023/08/22 01:46:50;;;;;;;2.93;1.70;;;;;;;21.01;79.24;100967.75;5055039;28;20227;-75
2023/08/22 01:49:16;;;;;;;2.13;1.50;;;;;;;21.00;80.73;100954.56;5054752;28;20211;-75
2023/08/22 01:51:43;;;;;;;1.10;1.00;;;;;;;20.99;81.54;100932.47;5055124;28;20221;-75
2023/08/22 01:54:09;;;;;;;2.13;1.10;;;;;;;21.00;81.27;100928.00;5054687;28;20212;-75
2023/08/22 01:56:37;;;;;;;4.53;1.47;;;;;;;21.02;81.99;100912.88;5054580;28;20211;-74
2023/08/22 01:59:03;;;;;;;2.63;1.40;;;;;;;20.98;82.48;100901.56;5055272;28;20216;-75
2023/08/22 02:01:30;;;;;;;1.33;1.23;;;;;;;20.94;83.44;100881.44;5046363;28;20234;-75
2023/08/22 02:04:01;;;;;;;2.63;1.20;;;;;;;20.93;83.68;100871.78;5054336;28;20598;-75
2023/08/22 02:06:28;;;;;;;2.30;1.50;;;;;;;20.97;83.24;100870.66;5054729;28;20205;-75
2023/08/22 02:08:54;;;;;;;1.57;1.10;;;;;;;20.93;82.65;100881.50;5054791;28;20208;-75
2023/08/22 02:11:21;;;;;;;1.47;1.10;;;;;;;20.94;83.42;100881.44;5054360;28;20208;-75
2023/08/22 02:13:49;;;;;;;1.73;1.43;;;;;;;20.90;83.28;100882.53;5054699;28;20220;-75
2023/08/22 02:16:15;;;;;;;2.60;1.20;;;;;;;20.94;83.41;100883.25;5054316;28;20695;-75
2023/08/22 02:18:42;;;;;;;2.50;1.17;;;;;;;20.91;82.98;100886.94;5054075;28;20205;-75
2023/08/22 02:21:08;;;;;;;8.77;1.50;;;;;;;20.92;83.03;100887.78;5054173;28;20248;-74
2023/08/22 02:23:35;;;;;;;2.50;1.10;;;;;;;20.84;83.25;100882.88;5054471;28;20206;-75
2023/08/22 02:26:01;;;;;;;2.67;1.30;;;;;;;20.73;83.76;100864.91;5054526;28;20561;-75
2023/08/22 02:28:28;;;;;;;2.43;1.47;;;;;;;20.76;83.34;100859.41;5054060;28;20205;-75
2023/08/22 02:30:56;;;;;;;2.20;1.20;;;;;;;20.81;82.44;100877.72;5054203;28;20575;-75
2023/08/22 02:33:23;;;;;;;1.77;1.10;;;;;;;20.81;81.76;100888.34;5053616;28;20258;-74
2023/08/22 02:35:50;;;;;;;9.40;2.00;;;;;;;20.74;82.33;100895.78;5054296;28;20209;-74
2023/08/22 02:38:17;;;;;;;2.30;1.13;;;;;;;20.77;82.39;100892.09;5054070;28;20203;-75
2023/08/22 02:40:43;;;;;;;1.73;0.93;;;;;;;20.75;83.68;100868.34;5053760;28;20217;-75
2023/08/22 02:43:10;;;;;;;3.07;1.47;;;;;;;20.78;83.70;100868.16;5053416;28;20229;-75
2023/08/22 02:45:37;;;;;;;2.77;1.90;;;;;;;20.79;84.59;100846.00;5054299;28;20226;-74
2023/08/22 02:48:06;;;;;;;2.00;1.40;;;;;;;20.73;83.76;100856.06;5053239;28;20215;-75
2023/08/22 02:50:32;;;;;;;6.73;1.50;;;;;;;20.83;83.31;100858.16;5054050;28;20205;-75
2023/08/22 02:52:59;;;;;;;2.57;1.67;;;;;;;20.79;83.14;100872.53;5053914;28;20229;-75
2023/08/22 02:55:25;;;;;;;1.30;1.17;;;;;;;20.82;82.98;100876.81;5054093;28;20210;-75
2023/08/22 02:57:52;;;;;;;3.43;1.43;;;;;;;20.83;83.26;100876.72;5053583;28;20197;-75
2023/08/22 03:00:18;;;;;;;2.53;1.13;;;;;;;21.00;82.36;100874.94;5053736;28;20229;-75
2023/08/22 03:02:45;;;;;;;3.87;1.20;;;;;;;21.11;81.64;100906.19;5052867;28;20222;-75
2023/08/22 03:05:13;;;;;;;1.33;0.90;;;;;;;21.12;82.37;100890.16;5054040;28;20209;-74
2023/08/22 03:07:40;;;;;;;1.47;0.93;;;;;;;21.08;82.54;100880.66;5053578;28;20282;-75
2023/08/22 03:10:08;;;;;;;1.73;1.40;;;;;;;21.09;82.54;100868.25;5053790;28;20214;-75
2023/08/22 03:12:35;;;;;;;2.10;1.43;;;;;;;21.05;83.03;100869.34;5053233;28;20229;-74
2023/08/22 03:15:02;;;;;;;1.57;1.47;;;;;;;20.98;83.07;100871.50;5053671;28;20220;-75
2023/08/22 03:17:29;;;;;;;2.90;1.10;;;;;;;20.96;83.23;100863.63;5052444;28;20212;-75
2023/08/22 03:19:56;;;;;;;2.23;1.23;;;;;;;20.97;83.24;100861.81;5053412;28;20213;-75
2023/08/22 03:22:23;;;;;;;2.93;1.33;;;;;;;20.99;83.13;100854.63;5053251;28;20714;-75
2023/08/22 03:24:50;;;;;;;2.93;1.77;;;;;;;20.95;81.63;100880.50;5053041;28;20223;-75
2023/08/22 03:27:16;;;;;;;1.50;1.40;;;;;;;20.52;80.07;100942.94;5053346;28;20212;-75
2023/08/22 03:29:43;;;;;;;2.33;1.30;;;;;;;20.51;81.89;100914.69;5053263;28;20197;-74
2023/08/22 03:32:09;;;;;;;2.73;1.30;;;;;;;20.58;82.40;100892.22;5052513;28;20451;-74
2023/08/22 03:34:36;;;;;;;1.20;1.10;;;;;;;20.68;81.69;100895.28;5053445;28;20224;-75
2023/08/22 03:37:02;;;;;;;2.77;1.40;;;;;;;20.68;81.20;100909.41;5053176;28;20201;-75
2023/08/22 03:39:30;;;;;;;1.43;1.30;;;;;;;20.72;81.25;100910.94;5052848;28;20580;-74
2023/08/22 03:41:56;;;;;;;3.93;1.47;;;;;;;20.72;81.21;100913.59;5054685;28;20240;-74
2023/08/22 03:44:23;;;;;;;1.60;1.50;;;;;;;20.64;82.29;100889.28;5052924;28;20205;-74
2023/08/22 03:46:49;;;;;;;3.13;1.40;;;;;;;20.68;82.26;100885.50;5052914;28;20209;-73
2023/08/22 03:49:17;;;;;;;1.63;1.30;;;;;;;20.67;82.37;100885.59;5052582;28;20216;-74
2023/08/22 03:51:43;;;;;;;3.93;1.33;;;;;;;20.64;81.73;100899.88;5052891;28;20232;-74
2023/08/22 03:54:10;;;;;;;1.23;1.00;;;;;;;20.67;81.18;100910.31;5051495;28;20578;-74
2023/08/22 03:56:38;;;;;;;2.10;1.60;;;;;;;20.54;78.84;100962.28;5052779;28;20216;-73
2023/08/22 03:59:04;;;;;;;2.10;1.50;;;;;;;20.27;80.62;100952.16;5052550;28;20216;-74
2023/08/22 04:01:31;;;;;;;2.10;1.80;;;;;;;20.38;82.17;100917.16;5052404;28;20575;-74
2023/08/22 04:03:57;;;;;;;3.87;1.50;;;;;;;20.47;82.27;100894.59;5052211;28;20202;-74
2023/08/22 04:06:23;;;;;;;2.33;1.30;;;;;;;20.55;82.65;100887.91;5052716;28;20204;-74
2023/08/22 04:08:50;;;;;;;2.70;1.33;;;;;;;20.63;83.71;100876.94;5052404;28;20210;-74
2023/08/22 04:11:16;;;;;;;1.57;1.37;;;;;;;20.13;82.57;100893.69;5051932;28;20209;-74
2023/08/22 04:13:44;;;;;;;5.13;1.40;;;;;;;19.62;85.99;100838.81;5052584;28;20221;-73
2023/08/22 04:16:11;;;;;;;2.57;1.90;;;;;;;19.36;88.39;100781.84;5052604;28;20205;-74
2023/08/22 04:18:37;;;;;;;3.53;1.93;;;;;;;19.20;89.79;100749.16;5051844;28;20201;-73
2023/08/22 04:21:04;;;;;;;3.23;2.10;;;;;;;19.12;90.25;100711.63;5052221;28;20228;-73
2023/08/22 04:23:31;;;;;;;1.83;1.67;;;;;;;19.45;90.47;100695.84;5052077;28;20209;-74
2023/08/22 04:25:57;;;;;;;2.73;1.57;;;;;;;19.70;90.63;100684.81;5051933;28;20681;-76
2023/08/22 04:28:25;;;;;;;3.20;1.77;;;;;;;19.90;90.07;100698.78;5052047;28;20556;-73
2023/08/22 04:30:57;;;;;;;5.97;2.37;;;;;;;19.70;87.90;100744.84;5051977;28;20216;-73
2023/08/22 04:33:24;;;;;;;3.23;1.93;;;;;;;19.58;88.84;100755.19;5051643;28;20229;-74
2023/08/22 04:35:50;;;;;;;6.67;2.43;;;;;;;19.41;89.34;100744.59;5052253;28;20579;-73
2023/08/22 04:38:17;;;;;;;3.87;1.70;;;;;;;19.56;90.26;100725.28;5051768;28;20218;-75
2023/08/22 04:40:43;;;;;;;2.83;1.80;;;;;;;19.82;90.57;100723.94;5051821;28;20302;-74
2023/08/22 04:43:10;;;;;;;1.90;1.43;;;;;;;19.87;89.89;100726.31;5051834;28;20226;-73
2023/08/22 04:45:36;;;;;;;5.00;1.60;;;;;;;20.03;90.04;100723.72;5051886;28;20212;-74
2023/08/22 04:48:05;;;;;;;2.37;1.37;;;;;;;20.14;90.01;100724.00;5051424;28;20204;-74
2023/08/22 04:50:31;;;;;;;3.60;1.70;;;;;;;20.26;89.39;100742.78;5051859;28;20212;-74
2023/08/22 04:52:58;;;;;;;2.93;1.50;;;;;;;20.35;89.22;100752.91;5051489;28;20236;-74
2023/08/22 04:55:24;;;;;;;2.73;1.50;;;;;;;20.16;86.48;100806.09;5052027;28;20209;-74
2023/08/22 04:57:51;;;;;;;1.73;1.50;;;;;;;20.14;86.89;100818.56;5051659;28;20254;-74
2023/08/22 05:00:18;;;;;;;1.80;1.60;;;;;;;19.97;87.24;100825.59;5051740;28;20216;-74
2023/08/22 05:02:45;;;;;;;2.77;1.67;;;;;;;20.02;87.26;100809.47;5051316;28;20267;-74
2023/08/22 05:05:13;;;;;;;2.00;1.60;;;;;;;20.15;87.35;100802.56;5051562;28;20216;-74
2023/08/22 05:07:39;;;;;;;2.20;1.40;;;;;;;20.29;88.01;100798.31;5051044;28;20208;-74
2023/08/22 05:10:06;;;;;;;1.73;1.23;;;;;;;20.36;88.28;100778.50;5051732;28;20576;-74
2023/08/22 05:12:33;;;;;;;1.30;1.20;;;;;;;20.43;89.27;100767.47;5051241;28;20822;-74
2023/08/22 05:14:59;;;;;;;1.40;1.30;;;;;;;20.50;89.14;100759.19;5051624;28;20216;-74
2023/08/22 05:17:27;;;;;;;1.83;1.50;;;;;;;20.53;88.96;100756.34;5050689;28;20209;-74
2023/08/22 05:19:53;;;;;;;3.87;1.57;;;;;;;20.58;88.77;100751.66;5050707;28;20209;-74
2023/08/22 05:22:21;;;;;;;1.30;1.20;;;;;;;20.57;89.00;100761.41;5053851;28;20233;-74
2023/08/22 05:24:48;;;;;;;2.00;1.47;;;;;;;20.62;88.14;100767.34;5051483;28;20209;-74
2023/08/22 05:27:15;;;;;;;1.33;1.23;;;;;;;20.65;87.73;100786.66;5051241;28;20215;-74
2023/08/22 05:29:42;;;;;;;2.47;1.50;;;;;;;20.67;87.93;100784.78;5050769;28;20209;-74
2023/08/22 05:32:08;;;;;;;1.40;1.20;;;;;;;20.72;88.22;100788.06;5050890;28;20244;-74
2023/08/22 05:34:35;;;;;;;4.27;1.30;;;;;;;20.78;87.98;100785.06;5051493;28;20215;-73
2023/08/22 05:37:02;;;;;;;2.77;1.13;;;;;;;20.80;87.79;100805.25;5051097;28;20686;-73
2023/08/22 05:39:30;;;;;;;4.57;1.27;;;;;;;20.76;88.05;100795.75;5051057;28;20213;-73
2023/08/22 05:41:56;;;;;;;2.43;1.30;;;;;;;20.81;88.01;100799.00;5050883;28;20225;-73
2023/08/22 05:44:22;;;;;;;2.53;1.53;;;;;;;20.89;89.29;100781.78;5051438;28;20216;-73
2023/08/22 05:46:49;;;;;;;1.97;1.20;;;;;;;20.92;88.28;100784.28;5051203;28;20202;-72
2023/08/22 05:49:15;;;;;;;2.00;1.50;;;;;;;20.97;86.78;100806.09;5050390;28;20288;-72
2023/08/22 05:51:42;;;;;;;2.70;1.20;;;;;;;20.97;86.92;100825.53;5051276;28;20321;-74
2023/08/22 05:54:08;;;;;;;2.03;1.50;;;;;;;20.97;87.48;100824.66;5050972;28;20213;-74
2023/08/22 05:56:36;;;;;;;3.03;1.53;;;;;;;21.00;87.69;100827.16;5051089;28;20208;-73
2023/08/22 05:59:03;;;;;;;2.13;1.50;;;;;;;21.03;87.96;100814.56;5051080;28;20212;-74
2023/08/22 06:01:29;;;;;;;2.27;1.37;;;;;;;21.10;88.03;100801.78;5050362;28;20240;-73
2023/08/22 06:03:56;;;;;;;1.50;1.40;;;;;;;21.16;89.01;100801.44;5050301;28;20201;-73
2023/08/22 06:06:22;;;;;;;3.63;1.93;;;;;;;21.25;88.61;100789.44;5050963;28;20675;-73
2023/08/22 06:08:49;;;;;;;5.87;1.83;;;;;;;21.29;87.52;100819.31;5042737;28;20201;-73
2023/08/22 06:11:15;;;;;;;3.53;1.10;;;;;;;21.30;87.50;100821.88;5050941;28;20276;-73
2023/08/22 06:13:43;;;;;;;1.93;1.83;;;;;;;21.31;86.82;100834.25;5050771;28;20217;-73
2023/08/22 06:16:11;;;;;;;3.30;1.90;;;;;;;21.30;86.49;100842.28;5051007;28;20228;-73
2023/08/22 06:18:37;;;;;;;3.33;1.40;;;;;;;21.30;86.91;100835.16;5053097;28;20296;-73
2023/08/22 06:21:04;;;;;;;3.13;1.80;;;;;;;21.35;88.35;100816.34;5054314;28;20235;-73
2023/08/22 06:23:30;;;;;;;1.70;1.27;;;;;;;21.37;88.54;100791.38;5054219;28;20257;-73
2023/08/22 06:25:56;;;;;;;2.43;1.33;;;;;;;21.37;88.00;100804.66;5054329;28;20209;-73
2023/08/22 06:28:23;;;;;;;2.07;1.30;;;;;;;21.35;88.35;100797.75;5054511;28;20205;-73
2023/08/22 06:30:51;;;;;;;1.40;1.30;;;;;;;21.35;88.42;100787.13;5045909;28;20201;-73
2023/08/22 06:33:17;;;;;;;3.07;1.67;;;;;;;21.38;88.00;100795.75;5053756;28;20229;-73
2023/08/22 06:35:46;;;;;;;1.30;1.20;;;;;;;21.40;88.08;100800.97;5054495;28;20702;-73
2023/08/22 06:38:13;;;;;;;2.40;1.40;;;;;;;21.43;87.91;100806.16;5054125;28;20236;-73
2023/08/22 06:40:39;;;;;;;2.43;1.33;;;;;;;21.49;88.79;100792.50;5054216;28;20209;-73
2023/08/22 06:43:05;;;;;;;2.23;1.70;;;;;;;21.51;88.18;100790.59;5053771;28;20233;-75
2023/08/22 06:45:32;;;;;;;1.97;1.20;;;;;;;21.54;87.50;100811.66;5047241;28;20572;-78
2023/08/22 06:48:00;;;;;;;4.20;1.10;;;;;;;21.59;87.20;100825.53;5053327;28;20220;-77
2023/08/22 06:50:26;;;;;;;3.73;1.70;;;;;;;21.56;86.65;100836.34;5052916;28;20212;-77
2023/08/22 06:52:53;;;;;;;5.43;2.03;;;;;;;20.96;83.47;100910.56;5053882;28;20227;-76
2023/08/22 06:55:19;;;;;;;2.00;1.80;;;;;;;20.86;83.77;100925.25;5053899;28;20214;-77
2023/08/22 06:57:46;;;;;;;2.30;1.90;;;;;;;20.91;82.89;100933.81;5053986;28;20292;-78
2023/08/22 07:00:14;;;;;;;6.30;2.00;;;;;;;20.69;83.31;100942.06;5053441;28;20217;-76
2023/08/22 07:02:41;;;;;;;6.13;2.00;;;;;;;20.49;85.17;100906.81;5053426;28;20573;-77
2023/08/22 07:05:09;;;;;;;3.93;2.00;;;;;;;20.42;85.58;100886.88;5054690;28;20197;-78
2023/08/22 07:07:36;;;;;;;1.93;1.73;;;;;;;20.34;84.06;100907.66;5054115;28;20205;-77
2023/08/22 07:10:04;;;;;;;3.60;1.53;;;;;;;20.28;86.29;100895.56;5053155;28;20215;-77
2023/08/22 07:12:31;;;;;;;3.83;1.67;;;;;;;20.18;89.00;100839.50;5053549;28;20707;-77
2023/08/22 07:14:58;;;;;;;4.60;1.70;;;;;;;20.36;87.02;100839.47;5053433;28;20212;-77
2023/08/22 07:17:24;;;;;;;6.47;1.80;;;;;;;20.33;87.21;100845.78;5053062;28;20223;-80
2023/08/22 07:19:51;;;;;;;3.20;1.93;;;;;;;20.33;85.78;100864.34;5053263;28;20702;-77
2023/08/22 07:22:18;;;;;;;3.23;1.73;;;;;;;20.42;84.54;100901.00;5053343;28;20705;-77
2023/08/22 07:24:45;;;;;;;6.03;2.00;;;;;;;20.57;84.97;100888.72;5053303;28;20212;-77
2023/08/22 07:27:12;;;;;;;3.97;1.60;;;;;;;20.60;81.55;100959.34;5053035;28;20210;-77
2023/08/22 07:29:39;;;;;;;2.53;2.33;;;;;;;20.84;79.11;101010.25;5053017;28;20667;-77
2023/08/22 07:32:06;;;;;;;3.97;1.70;;;;;;;20.95;79.17;101038.88;5052661;28;20722;-80
2023/08/22 07:34:33;;;;;;;3.07;1.83;;;;;;;21.15;79.49;101044.00;5053213;28;20657;-77
2023/08/22 07:36:59;;;;;;;1.57;1.47;;;;;;;21.44;79.07;101036.25;5053145;28;20260;-77
2023/08/22 07:39:28;;;;;;;4.83;1.60;;;;;;;21.54;78.63;101060.53;5052772;28;20692;-79
2023/08/22 07:41:54;;;;;;;2.57;2.17;;;;;;;21.61;78.77;101059.25;5052589;28;20695;-78
2023/08/22 07:44:21;;;;;;;2.40;1.30;;;;;;;21.61;78.37;101060.09;5053365;28;20287;-77
2023/08/22 07:46:47;;;;;;;2.77;1.50;;;;;;;21.52;79.29;101070.38;5053128;28;20574;-78
2023/08/22 07:49:14;;;;;;;2.20;1.50;;;;;;;21.43;78.96;101058.47;5052603;28;20220;-77
2023/08/22 07:51:40;;;;;;;4.20;2.13;;;;;;;21.63;78.73;101051.22;5052918;28;20248;-80
2023/08/22 07:54:07;;;;;;;2.77;1.57;;;;;;;21.57;78.95;101063.88;5052876;28;20202;-78
2023/08/22 07:56:35;;;;;;;2.03;1.37;;;;;;;21.73;76.87;101079.84;5052543;28;20220;-77
2023/08/22 07:59:02;;;;;;;1.90;1.60;;;;;;;21.81;77.53;101093.56;5053146;28;20304;-77
2023/08/22 08:01:28;;;;;;;3.77;1.30;;;;;;;21.72;77.53;101093.19;5052644;28;20271;-76
2023/08/22 08:03:56;;;;;;;4.00;1.40;;;;;;;21.99;76.44;101114.72;5052599;28;20209;-78
2023/08/22 08:06:23;;;;;;;3.50;1.37;;;;;;;21.99;75.67;101136.84;5052781;28;20213;-76
2023/08/22 08:08:49;;;;;;;4.17;1.60;;;;;;;22.09;76.47;101128.38;5052926;28;20208;-78
2023/08/22 08:11:16;;;;;;;2.57;1.40;;;;;;;22.24;74.36;101171.84;5052241;28;20205;-77
2023/08/22 08:13:43;;;;;;;2.70;1.50;;;;;;;22.43;74.24;101177.03;5052785;28;20225;-77
2023/08/22 08:16:10;;;;;;;3.87;1.77;;;;;;;22.57;72.61;101215.19;5052920;28;20209;-77
2023/08/22 08:18:37;;;;;;;3.07;2.77;;;;;;;22.62;71.74;101238.91;5051688;28;20209;-77
2023/08/22 08:21:03;;;;;;;3.23;1.50;;;;;;;22.72;70.51;101252.56;5052600;28;20564;-77
2023/08/22 08:23:30;;;;;;;3.33;1.43;;;;;;;22.67;71.78;101246.63;5052329;28;20228;-80
2023/08/22 08:25:56;;;;;;;1.53;1.43;;;;;;;22.49;70.94;101262.66;5052550;28;20232;-78
2023/08/22 08:28:23;;;;;;;1.73;1.20;;;;;;;22.81;71.72;101236.03;5052461;28;20201;-77
2023/08/22 08:30:51;;;;;;;3.67;1.90;;;;;;;22.80;71.09;101232.53;5052206;28;20229;-77
2023/08/22 08:33:18;;;;;;;1.40;1.30;;;;;;;22.78;71.31;101236.22;5052079;28;20218;-77
2023/08/22 08:35:44;;;;;;;2.37;1.60;;;;;;;22.89;69.81;101280.84;5052562;28;20213;-77
2023/08/22 08:38:11;;;;;;;2.27;1.40;;;;;;;23.03;71.48;101266.78;5052033;28;20209;-78
2023/08/22 08:40:38;;;;;;;4.37;1.40;;;;;;;23.02;69.60;101300.56;5051631;28;20227;-77
2023/08/22 08:43:05;;;;;;;6.63;1.60;;;;;;;23.26;70.18;101300.94;5052115;28;20229;-77
2023/08/22 08:45:34;;;;;;;3.07;1.47;;;;;;;23.43;70.90;101269.75;5052100;28;20213;-78
2023/08/22 08:48:03;;;;;;;1.37;1.10;;;;;;;23.51;68.56;101300.34;5031916;28;20275;-77
2023/08/22 08:50:31;;;;;;;2.13;1.57;;;;;;;23.75;67.86;101334.47;5047895;28;20212;-76
2023/08/22 08:52:59;;;;;;;2.63;1.43;;;;;;;23.87;67.24;101351.59;5051604;28;20237;-79
2023/08/22 08:55:25;;;;;;;2.43;1.37;;;;;;;23.97;66.48;101390.09;5052218;28;20202;-78
2023/08/22 08:57:52;;;;;;;1.97;1.50;;;;;;;24.16;64.99;101405.81;5051826;28;20201;-79
2023/08/22 09:00:19;;;;;;;2.90;1.40;;;;;;;24.28;63.69;101468.25;5051869;28;20206;-78
2023/08/22 09:02:46;;;;;;;2.37;1.20;;;;;;;24.33;62.26;101492.88;5047454;28;20598;-79
2023/08/22 09:05:14;;;;;;;1.93;1.30;;;;;;;24.39;61.20;101541.38;5051082;28;20206;-78
2023/08/22 09:07:43;;;;;;;2.13;1.60;;;;;;;24.39;61.72;101549.38;5049183;28;20213;-79
2023/08/22 09:10:10;;;;;;;3.00;1.50;;;;;;;24.37;61.40;101571.78;5050179;28;20686;-78
2023/08/22 09:12:38;;;;;;;3.63;2.13;;;;;;;24.39;61.96;101556.53;5050229;28;20258;-80
2023/08/22 09:15:08;;;;;;;2.23;2.03;;;;;;;24.33;61.93;101551.56;5050847;28;20221;-79
2023/08/22 09:17:35;;;;;;;1.67;1.40;;;;;;;24.45;62.05;101533.97;5050816;28;20220;-80
2023/08/22 09:20:09;;;;;;;4.10;1.77;;;;;;;24.64;62.65;101507.03;5051651;28;20216;-78
2023/08/22 09:22:37;;;;;;;2.57;1.57;;;;;;;24.68;61.53;101521.94;5051555;28;20271;-79
2023/08/22 09:25:07;;;;;;;5.23;2.27;;;;;;;24.50;61.84;101539.88;5043746;28;20203;-81
2023/08/22 09:27:34;;;;;;;9.87;2.23;;;;;;;24.52;62.17;101516.69;5051568;28;20277;-78
2023/08/22 09:30:04;;;;;;;2.43;2.03;;;;;;;24.65;61.11;101539.00;5051702;28;20209;-78
2023/08/22 09:32:30;;;;;;;3.30;1.70;;;;;;;24.74;60.63;101545.59;5051356;28;20218;-77
2023/08/22 09:34:58;;;;;;;3.10;1.53;;;;;;;24.79;59.10;101575.53;5051910;28;20205;-77
2023/08/22 09:37:32;;;;;;;2.00;1.60;;;;;;;24.91;57.63;101606.00;5051646;28;20237;-79
2023/08/22 09:40:00;;;;;;;3.60;2.03;;;;;;;25.04;57.56;101639.03;5051659;28;20205;-79
2023/08/22 09:42:29;;;;;;;6.60;1.50;;;;;;;25.12;55.09;101702.69;5051773;28;20226;-79
2023/08/22 09:44:56;;;;;;;2.80;1.83;;;;;;;25.06;54.26;101741.31;5051535;28;20552;-77
2023/08/22 09:47:24;;;;;;;3.33;1.70;;;;;;;25.26;54.60;101753.53;5051044;28;20213;-78
2023/08/22 09:49:56;;;;;;;2.17;1.80;;;;;;;25.28;53.74;101759.63;5051492;28;20846;-77
2023/08/22 09:52:23;;;;;;;2.07;1.90;;;;;;;25.28;53.65;101774.81;5054129;28;20603;-77
2023/08/22 09:54:50;;;;;;;2.40;2.20;;;;;;;25.41;54.79;101753.53;5055510;28;20221;-78
2023/08/22 09:57:19;;;;;;;2.13;1.90;;;;;;;25.60;55.61;101731.91;5055225;28;20209;-77
2023/08/22 09:59:48;;;;;;;2.53;1.70;;;;;;;25.64;54.09;101733.44;5055498;28;20288;-79
2023/08/22 10:02:15;;;;;;;1.60;1.50;;;;;;;25.52;52.53;101777.81;5054172;28;20241;-78
2023/08/22 10:04:42;;;;;;;4.33;2.43;;;;;;;25.59;52.15;101811.28;5054908;28;20545;-79
2023/08/22 10:07:09;;;;;;;1.70;1.60;;;;;;;25.66;52.59;101825.13;5054668;28;20202;-77
2023/08/22 10:09:36;;;;;;;3.07;2.03;;;;;;;25.70;52.19;101824.84;5054280;28;20209;-80
2023/08/22 10:12:08;;;;;;;3.40;2.03;;;;;;;25.65;53.31;101805.56;5054131;28;20237;-78
2023/08/22 10:14:40;;;;;;;2.07;1.70;;;;;;;25.29;52.73;101840.69;5054657;28;20602;-78
2023/08/22 10:17:11;;;;;;;2.03;1.70;;;;;;;25.27;55.33;101773.97;5054043;28;20203;-78
2023/08/22 10:19:38;;;;;;;2.07;1.80;;;;;;;25.17;54.33;101756.69;5054384;28;20200;-78
2023/08/22 10:22:08;;;;;;;2.93;2.10;;;;;;;25.11;55.58;101735.69;5054206;28;20225;-78
2023/08/22 10:24:35;;;;;;;2.17;2.07;;;;;;;25.20;54.78;101723.63;5054603;28;20252;-78
2023/08/22 10:27:04;;;;;;;2.27;2.00;;;;;;;25.22;56.91;101697.69;5054358;28;20290;-78
2023/08/22 10:29:34;;;;;;;2.60;2.03;;;;;;;25.27;55.80;101664.38;5054560;28;20205;-77
2023/08/22 10:32:21;;;;;;;3.13;1.90;;;;;;;25.41;56.34;101673.34;5053952;28;20675;-82
2023/08/22 10:35:25;;;;;;;3.37;2.23;;;;;;;25.27;55.68;101684.88;5054169;28;20296;-77
2023/08/22 10:37:52;;;;;;;4.50;1.87;;;;;;;25.40;55.67;101704.56;5052463;28;20297;-78
2023/08/22 10:40:30;;;;;;;2.10;1.80;;;;;;;25.48;53.11;101741.53;5054597;28;20200;-77
2023/08/22 10:43:12;;;;;;;2.73;1.63;;;;;;;25.55;52.01;101783.00;5053970;28;20234;-77
2023/08/22 10:45:56;;;;;;;3.83;1.80;;;;;;;25.67;52.57;101795.63;5052863;28;20625;-78
2023/08/22 10:48:24;;;;;;;3.30;1.57;;;;;;;25.56;52.59;101787.38;5046521;28;20202;-77
2023/08/22 10:50:52;;;;;;;1.87;1.60;;;;;;;25.47;51.52;101810.22;5052607;28;20206;-79
2023/08/22 10:53:26;;;;;;;1.60;1.50;;;;;;;25.45;53.73;101797.84;5053565;28;20217;-78
2023/08/22 10:55:54;;;;;;;3.30;1.50;;;;;;;25.32;51.88;101814.63;5049698;28;20209;-76
2023/08/22 10:58:37;;;;;;;2.80;1.50;;;;;;;25.48;52.82;101801.22;5054146;28;20209;-76
2023/08/22 11:01:07;;;;;;;2.73;1.40;;;;;;;25.39;53.08;101787.53;5053430;28;20576;-77
2023/08/22 11:03:35;;;;;;;3.53;1.77;;;;;;;25.43;53.01;101781.06;5051340;28;20257;-76
2023/08/22 11:06:01;;;;;;;1.60;1.33;;;;;;;25.35;53.07;101779.72;5053229;28;20212;-76
2023/08/22 11:08:28;;;;;;;2.80;1.73;;;;;;;25.45;52.45;101784.50;5052784;28;20668;-75
2023/08/22 11:10:58;;;;;;;2.50;1.53;;;;;;;25.54;52.90;101776.78;5053360;28;20278;-76
2023/08/22 11:13:36;;;;;;;2.53;1.10;;;;;;;25.74;52.98;101764.00;5052990;28;20623;-76
2023/08/22 11:16:03;;;;;;;1.63;1.40;;;;;;;25.65;53.26;101770.78;5054015;28;20205;-77
2023/08/22 11:18:29;;;;;;;2.77;1.73;;;;;;;25.58;52.91;101764.09;5052681;28;20203;-77
2023/08/22 11:20:58;;;;;;;1.30;1.20;;;;;;;25.81;52.08;101785.88;5053303;28;20211;-77
2023/08/22 11:23:25;;;;;;;1.83;1.33;;;;;;;25.79;50.86;101798.47;5053343;28;20230;-77
2023/08/22 11:25:51;;;;;;;1.33;1.07;;;;;;;25.82;50.73;101836.59;5054366;28;20203;-77